Terminal Aerodrome Forecast
Issued by NWS

Home | Current Version | Previous Version | Text Only | Print | Product List | Glossary Off
Versions: 1 2 3 4 5 6 7 8 9 10 11 12 13 14 15 16 17 18 19 20 21 22

000
FTUS45 KGGW 211143
TAFOLF
TAF
KOLF 211143Z 2112/2212 08010KT P6SM BKN120
     FM211600 11016G24KT P6SM SCT130
     FM220300 14017KT P6SM VCTS BKN110CB PROB30 2203/2205 6SM -TSRA
      OVC040CB
     FM220600 23007KT P6SM BKN060=

USA.gov is the U.S. government's official web portal to all federal, state and local government web resources and services.